createdAt,value
2019-03-28T00:00:53.714Z,7.60
2019-03-28T00:03:22.478Z,7.50
2019-03-28T00:05:50.914Z,7.50
2019-03-28T00:08:19.353Z,7.50
2019-03-28T00:10:47.800Z,7.60
2019-03-28T00:13:16.489Z,7.60
2019-03-28T00:15:45.180Z,7.50
2019-03-28T00:18:13.637Z,7.60
2019-03-28T00:20:42.461Z,7.60
2019-03-28T00:23:12.498Z,7.70
2019-03-28T00:25:41.297Z,7.70
2019-03-28T00:28:09.808Z,7.80
2019-03-28T00:30:38.214Z,7.90
2019-03-28T00:33:06.663Z,8.00
2019-03-28T00:35:35.153Z,8.00
2019-03-28T00:38:03.571Z,8.00
2019-03-28T00:40:32.033Z,8.00
2019-03-28T00:43:00.490Z,8.00
2019-03-28T00:45:28.902Z,8.00
2019-03-28T00:47:57.326Z,8.00
2019-03-28T00:50:25.839Z,8.00
2019-03-28T00:52:54.235Z,7.90
2019-03-28T00:55:22.745Z,7.70
2019-03-28T00:57:51.190Z,7.60
2019-03-28T01:00:20.850Z,7.40
2019-03-28T01:02:50.111Z,7.40
2019-03-28T01:05:18.559Z,7.50
2019-03-28T01:07:47.258Z,7.60
2019-03-28T01:10:15.903Z,7.60
2019-03-28T01:12:44.383Z,7.70
2019-03-28T01:15:13.157Z,7.70
2019-03-28T01:17:41.629Z,7.70
2019-03-28T01:20:10.633Z,7.60
2019-03-28T01:22:39.082Z,7.50
2019-03-28T01:25:07.633Z,7.40
2019-03-28T01:27:36.148Z,7.40
2019-03-28T01:30:07.053Z,7.40
2019-03-28T01:32:35.490Z,7.30
2019-03-28T01:35:04.577Z,7.20
2019-03-28T01:37:33.005Z,7.40
2019-03-28T01:40:01.418Z,7.30
2019-03-28T01:42:29.870Z,7.40
2019-03-28T01:44:58.299Z,7.40
2019-03-28T01:47:26.717Z,7.30
2019-03-28T01:49:55.137Z,7.30
2019-03-28T01:52:23.641Z,7.30
2019-03-28T01:54:52.043Z,7.30
2019-03-28T01:57:20.496Z,7.20
2019-03-28T01:59:48.893Z,7.30
2019-03-28T02:02:17.309Z,7.30
2019-03-28T02:04:45.721Z,7.30
2019-03-28T02:07:14.151Z,7.30
2019-03-28T02:09:42.602Z,7.40
2019-03-28T02:12:11.103Z,7.40
2019-03-28T02:14:39.606Z,7.40
2019-03-28T02:17:08.097Z,7.40
2019-03-28T02:19:36.566Z,7.40
2019-03-28T02:22:05.054Z,7.30
2019-03-28T02:24:33.502Z,7.40
2019-03-28T02:27:01.926Z,7.30
2019-03-28T02:29:30.357Z,7.30
2019-03-28T02:31:58.766Z,7.20
2019-03-28T02:34:27.286Z,7.20
2019-03-28T02:36:55.800Z,7.20
2019-03-28T02:39:24.531Z,7.20
2019-03-28T02:41:53.217Z,7.20
2019-03-28T02:44:21.633Z,7.20
2019-03-28T02:46:50.108Z,7.20
2019-03-28T02:49:19.709Z,7.30
2019-03-28T02:51:48.638Z,7.40
2019-03-28T02:54:17.072Z,7.30
2019-03-28T02:56:45.493Z,7.20
2019-03-28T02:59:13.951Z,7.20
2019-03-28T03:01:42.414Z,7.10
2019-03-28T03:04:11.185Z,7.10
2019-03-28T03:06:39.603Z,7.00
2019-03-28T03:09:10.220Z,7.00
2019-03-28T03:11:42.482Z,7.00
2019-03-28T03:14:08.978Z,7.00
2019-03-28T03:16:37.362Z,7.00
2019-03-28T03:19:05.980Z,7.00
2019-03-28T03:21:35.928Z,7.00
2019-03-28T03:24:04.960Z,7.00
2019-03-28T03:26:33.649Z,6.90
2019-03-28T03:29:02.179Z,6.80
2019-03-28T03:31:30.646Z,6.80
2019-03-28T03:33:59.527Z,6.80
2019-03-28T03:36:27.966Z,6.70
2019-03-28T03:38:56.477Z,6.60
2019-03-28T03:41:24.903Z,6.60
2019-03-28T03:43:53.339Z,6.60
2019-03-28T03:46:21.859Z,6.70
2019-03-28T03:48:50.330Z,6.70
2019-03-28T03:51:18.768Z,6.70
2019-03-28T03:53:47.199Z,6.80
2019-03-28T03:56:15.608Z,7.00
2019-03-28T03:58:44.064Z,6.90
2019-03-28T04:01:12.544Z,7.00
2019-03-28T04:03:40.968Z,7.10
2019-03-28T04:06:09.412Z,7.10
2019-03-28T04:08:37.826Z,7.00
2019-03-28T04:11:06.313Z,6.80
2019-03-28T04:13:34.785Z,6.80
2019-03-28T04:16:03.901Z,6.70
2019-03-28T04:18:32.470Z,6.70
2019-03-28T04:21:00.873Z,6.60
2019-03-28T04:23:29.769Z,6.60
2019-03-28T04:25:58.400Z,6.60
2019-03-28T04:28:31.961Z,6.60
2019-03-28T04:30:56.969Z,6.70
2019-03-28T04:33:25.375Z,6.80
2019-03-28T04:35:53.860Z,6.80
2019-03-28T04:38:22.292Z,6.80
2019-03-28T04:40:50.881Z,6.60
2019-03-28T04:43:19.715Z,6.70
2019-03-28T04:45:48.148Z,6.60
2019-03-28T04:48:16.567Z,6.60
2019-03-28T04:50:44.990Z,6.60
2019-03-28T04:53:13.423Z,6.70
2019-03-28T04:55:42.114Z,6.70
2019-03-28T04:58:10.535Z,6.80
2019-03-28T05:00:38.991Z,6.80
2019-03-28T05:03:07.401Z,6.90
2019-03-28T05:05:35.817Z,6.90
2019-03-28T05:08:04.244Z,6.80
2019-03-28T05:10:33.207Z,6.80
2019-03-28T05:13:02.091Z,6.80
2019-03-28T05:15:30.781Z,6.80
2019-03-28T05:17:59.246Z,6.70
2019-03-28T05:20:27.686Z,6.60
2019-03-28T05:22:56.198Z,6.70
2019-03-28T05:25:24.614Z,6.70
2019-03-28T05:27:53.025Z,6.80
2019-03-28T05:30:21.441Z,6.70
2019-03-28T05:32:49.842Z,6.60
2019-03-28T05:35:18.263Z,6.50
2019-03-28T05:37:46.753Z,6.50
2019-03-28T05:40:15.178Z,6.50
2019-03-28T05:42:43.909Z,6.60
2019-03-28T05:45:14.247Z,6.70
2019-03-28T05:47:42.657Z,6.50
2019-03-28T05:50:11.144Z,6.50
2019-03-28T05:52:39.659Z,6.50
2019-03-28T05:55:08.249Z,6.50
2019-03-28T05:57:36.794Z,6.50
2019-03-28T06:00:07.061Z,6.40
2019-03-28T06:02:35.485Z,6.40
2019-03-28T06:05:06.227Z,6.30
2019-03-28T06:07:34.802Z,6.30
2019-03-28T06:10:05.153Z,6.40
2019-03-28T06:12:33.591Z,6.60
2019-03-28T06:15:02.068Z,6.80
2019-03-28T06:17:30.489Z,7.00
2019-03-28T06:19:58.931Z,6.80
2019-03-28T06:22:27.429Z,6.70
2019-03-28T06:24:56.373Z,6.70
2019-03-28T06:27:24.845Z,6.90
2019-03-28T06:29:53.556Z,7.00
2019-03-28T06:32:21.993Z,7.10
2019-03-28T06:34:50.687Z,7.40
2019-03-28T06:37:19.165Z,7.60
2019-03-28T06:39:47.562Z,7.60
2019-03-28T06:42:16.013Z,7.50
2019-03-28T06:44:44.444Z,7.60
2019-03-28T06:47:12.973Z,7.60
2019-03-28T06:49:41.757Z,7.60
2019-03-28T06:52:10.834Z,7.50
2019-03-28T06:54:39.264Z,7.60
2019-03-28T06:57:07.707Z,7.80
2019-03-28T06:59:37.575Z,8.00
2019-03-28T07:02:06.581Z,8.00
2019-03-28T07:04:35.135Z,8.20
2019-03-28T07:07:03.554Z,8.20
2019-03-28T07:09:31.962Z,8.30
2019-03-28T07:12:00.448Z,8.40
2019-03-28T07:14:28.874Z,8.40
2019-03-28T07:16:57.289Z,8.60
2019-03-28T07:19:25.764Z,8.80
2019-03-28T07:21:54.237Z,9.00
2019-03-28T07:24:22.986Z,9.20
2019-03-28T07:26:51.698Z,9.30
2019-03-28T07:29:21.016Z,9.60
2019-03-28T07:31:49.449Z,9.70
2019-03-28T07:34:17.904Z,10.00
2019-03-28T07:36:46.469Z,10.00
2019-03-28T07:39:15.058Z,10.20
2019-03-28T07:41:43.507Z,10.50
2019-03-28T07:44:11.943Z,10.60
2019-03-28T07:46:40.365Z,10.70
2019-03-28T07:49:08.869Z,10.90
2019-03-28T07:51:37.301Z,10.90
2019-03-28T07:54:05.761Z,11.10
2019-03-28T07:56:34.215Z,11.10
2019-03-28T07:59:02.667Z,11.00
2019-03-28T08:01:31.087Z,10.80
2019-03-28T08:03:59.527Z,10.50
2019-03-28T08:06:27.979Z,10.60
2019-03-28T08:08:56.466Z,10.50
2019-03-28T08:11:24.962Z,10.80
2019-03-28T08:13:53.461Z,10.80
2019-03-28T08:16:21.938Z,11.00
2019-03-28T08:18:50.341Z,11.10
2019-03-28T08:21:18.785Z,11.10
2019-03-28T08:23:47.237Z,11.20
2019-03-28T08:26:15.681Z,11.40
2019-03-28T08:28:44.161Z,11.90
2019-03-28T08:31:12.658Z,12.00
2019-03-28T08:33:42.690Z,11.80
2019-03-28T08:36:11.659Z,12.00
2019-03-28T08:38:41.425Z,12.20
2019-03-28T08:41:09.925Z,12.20
2019-03-28T08:43:38.344Z,12.10
2019-03-28T08:46:08.774Z,12.20
2019-03-28T08:48:36.936Z,12.30
2019-03-28T08:51:05.517Z,12.60
2019-03-28T08:53:33.998Z,13.00
2019-03-28T08:56:02.438Z,13.10
2019-03-28T08:58:30.867Z,13.30
2019-03-28T09:00:59.471Z,13.50
2019-03-28T09:03:27.891Z,13.70
2019-03-28T09:05:56.397Z,13.70
2019-03-28T09:08:24.841Z,13.50
2019-03-28T09:10:53.310Z,13.20
2019-03-28T09:13:27.829Z,13.30
2019-03-28T09:15:56.337Z,13.10
2019-03-28T09:18:31.055Z,12.60
2019-03-28T09:20:59.571Z,13.10
2019-03-28T09:23:28.020Z,13.40
2019-03-28T09:26:16.125Z,13.10
2019-03-28T09:28:44.992Z,12.90
2019-03-28T09:31:19.837Z,12.20
2019-03-28T09:33:43.659Z,12.20
2019-03-28T09:36:12.097Z,12.30
2019-03-28T09:38:40.597Z,12.50
2019-03-28T09:41:09.201Z,12.60
2019-03-28T09:43:37.679Z,12.70
2019-03-28T09:46:06.254Z,12.60
2019-03-28T09:48:34.753Z,12.70
2019-03-28T09:51:03.203Z,13.20
2019-03-28T09:53:31.614Z,13.20
2019-03-28T09:56:00.214Z,13.20
2019-03-28T09:58:28.633Z,13.40
2019-03-28T10:01:03.111Z,13.30
2019-03-28T10:03:27.187Z,13.00
2019-03-28T10:05:55.621Z,13.00
2019-03-28T10:08:24.029Z,13.20
2019-03-28T10:10:52.457Z,13.10
2019-03-28T10:13:21.000Z,13.30
2019-03-28T10:15:49.494Z,13.50
2019-03-28T10:18:17.945Z,13.70
2019-03-28T10:20:46.396Z,13.50
2019-03-28T10:23:14.810Z,13.50
2019-03-28T10:25:44.656Z,13.30
2019-03-28T10:28:13.242Z,13.60
2019-03-28T10:30:44.139Z,13.50
2019-03-28T10:33:13.009Z,13.80
2019-03-28T10:35:41.454Z,13.30
2019-03-28T10:38:09.973Z,13.10
2019-03-28T10:40:38.474Z,13.20
2019-03-28T10:43:07.073Z,13.40
2019-03-28T10:45:35.572Z,13.70
2019-03-28T10:48:04.534Z,13.70
2019-03-28T10:50:40.874Z,13.60
2019-03-28T10:53:03.273Z,13.60
2019-03-28T10:55:31.809Z,13.80
2019-03-28T10:58:00.366Z,13.70
2019-03-28T11:00:29.090Z,13.60
2019-03-28T11:02:58.157Z,13.60
2019-03-28T11:05:26.653Z,13.80
2019-03-28T11:07:55.122Z,13.60
2019-03-28T11:10:23.665Z,13.50
2019-03-28T11:12:52.188Z,13.90
2019-03-28T11:15:20.801Z,13.90
2019-03-28T11:17:49.349Z,13.70
2019-03-28T11:20:17.805Z,13.60
2019-03-28T11:22:46.581Z,13.50
2019-03-28T11:25:15.264Z,13.30
2019-03-28T11:27:43.833Z,13.20
2019-03-28T11:30:12.797Z,13.00
2019-03-28T11:32:41.270Z,12.80
2019-03-28T11:35:10.632Z,12.80
2019-03-28T11:37:39.177Z,12.60
2019-03-28T11:40:09.262Z,12.50
2019-03-28T11:42:38.097Z,12.70
2019-03-28T11:45:09.639Z,12.80
2019-03-28T11:47:38.101Z,13.00
2019-03-28T11:50:11.250Z,12.70
2019-03-28T11:52:42.574Z,12.50
2019-03-28T11:55:10.184Z,12.60
2019-03-28T11:57:38.782Z,12.60
2019-03-28T12:00:11.316Z,12.60
2019-03-28T12:02:39.791Z,12.70
2019-03-28T12:05:08.681Z,12.70
2019-03-28T12:07:37.506Z,12.70
2019-03-28T12:10:08.288Z,12.80
2019-03-28T12:12:36.838Z,12.70
2019-03-28T12:15:08.337Z,12.70
2019-03-28T12:17:36.820Z,12.70
2019-03-28T12:20:07.922Z,12.80
2019-03-28T12:22:36.519Z,13.00
2019-03-28T12:25:08.109Z,13.20
2019-03-28T12:27:37.165Z,13.30
2019-03-28T12:30:10.906Z,13.40
2019-03-28T12:32:39.374Z,13.50
2019-03-28T12:35:09.296Z,13.90
2019-03-28T12:37:37.857Z,13.70
2019-03-28T12:40:08.045Z,13.70
2019-03-28T12:42:36.718Z,13.80
2019-03-28T12:45:10.142Z,14.00
2019-03-28T12:47:42.717Z,13.70
2019-03-28T12:50:10.109Z,13.40
2019-03-28T12:52:39.114Z,13.40
2019-03-28T12:55:08.211Z,13.40
2019-03-28T12:57:36.675Z,13.50
2019-03-28T13:00:10.749Z,13.40
2019-03-28T13:02:39.462Z,13.50
2019-03-28T13:05:27.252Z,13.30
2019-03-28T13:07:55.714Z,13.30
2019-03-28T13:10:24.248Z,13.30
2019-03-28T13:12:52.703Z,13.10
2019-03-28T13:15:21.212Z,13.20
2019-03-28T13:17:49.736Z,13.30
2019-03-28T13:20:18.174Z,13.50
2019-03-28T13:22:46.620Z,13.40
2019-03-28T13:25:15.100Z,13.30
2019-03-28T13:27:43.661Z,13.10
2019-03-28T13:30:14.415Z,12.90
2019-03-28T13:32:42.994Z,12.80
2019-03-28T13:35:11.585Z,12.90
2019-03-28T13:37:40.039Z,13.00
2019-03-28T13:40:09.987Z,13.20
2019-03-28T13:42:39.077Z,13.50
2019-03-28T13:45:09.536Z,13.70
2019-03-28T13:47:38.121Z,13.70
2019-03-28T13:50:08.812Z,13.70
2019-03-28T13:52:37.457Z,13.70
2019-03-28T13:55:07.157Z,13.60
2019-03-28T13:57:35.688Z,13.60
2019-03-28T14:00:06.631Z,13.70
2019-03-28T14:02:35.627Z,13.50
2019-03-28T14:05:07.584Z,13.40
2019-03-28T14:07:36.341Z,13.40
2019-03-28T14:10:07.511Z,13.30
2019-03-28T14:12:35.961Z,13.40
2019-03-28T14:15:07.150Z,13.30
2019-03-28T14:17:35.822Z,13.20
2019-03-28T14:20:06.058Z,13.20
2019-03-28T14:22:34.641Z,13.20
2019-03-28T14:25:03.562Z,13.10
2019-03-28T14:27:32.030Z,13.20
2019-03-28T14:30:00.585Z,13.00
2019-03-28T14:32:29.100Z,13.20
2019-03-28T14:34:57.557Z,12.90
2019-03-28T14:37:26.135Z,13.00
2019-03-28T14:39:54.673Z,12.90
2019-03-28T14:42:23.127Z,12.90
2019-03-28T14:44:51.931Z,13.00
2019-03-28T14:47:20.439Z,13.10
2019-03-28T14:49:48.967Z,13.30
2019-03-28T14:52:17.413Z,13.50
2019-03-28T14:54:45.878Z,13.40
2019-03-28T14:57:15.861Z,13.50
2019-03-28T14:59:44.390Z,13.50
2019-03-28T15:02:12.915Z,13.40
2019-03-28T15:04:41.397Z,13.40
2019-03-28T15:07:09.919Z,13.20
2019-03-28T15:09:38.373Z,13.00
2019-03-28T15:12:06.812Z,12.90
2019-03-28T15:14:35.274Z,13.00
2019-03-28T15:17:03.900Z,13.20
2019-03-28T15:19:32.503Z,13.10
2019-03-28T15:22:00.976Z,13.00
2019-03-28T15:24:29.481Z,13.10
2019-03-28T15:26:58.059Z,13.20
2019-03-28T15:29:26.559Z,13.30
2019-03-28T15:31:55.068Z,13.10
2019-03-28T15:34:23.531Z,13.20
2019-03-28T15:36:52.088Z,13.20
2019-03-28T15:39:20.605Z,13.00
2019-03-28T15:41:49.229Z,12.90
2019-03-28T15:44:17.773Z,13.00
2019-03-28T15:46:46.843Z,12.90
2019-03-28T15:49:15.314Z,13.00
2019-03-28T15:51:43.802Z,13.00
2019-03-28T15:54:12.320Z,12.90
2019-03-28T15:56:40.861Z,13.10
2019-03-28T15:59:09.393Z,13.20
2019-03-28T16:01:37.929Z,13.10
2019-03-28T16:04:06.525Z,13.10
2019-03-28T16:06:35.179Z,13.00
2019-03-28T16:09:05.265Z,12.90
2019-03-28T16:11:33.781Z,13.00
2019-03-28T16:14:04.867Z,13.00
2019-03-28T16:16:33.333Z,13.00
2019-03-28T16:19:02.006Z,12.70
2019-03-28T16:21:30.549Z,12.50
2019-03-28T16:23:59.279Z,12.60
2019-03-28T16:26:27.901Z,12.70
2019-03-28T16:28:56.688Z,12.60
2019-03-28T16:31:25.814Z,12.60
2019-03-28T16:34:06.148Z,12.50
2019-03-28T16:36:24.673Z,12.40
2019-03-28T16:38:53.185Z,12.40
2019-03-28T16:41:21.661Z,12.20
2019-03-28T16:43:50.104Z,12.20
2019-03-28T16:46:18.625Z,12.30
2019-03-28T16:48:47.065Z,12.20
2019-03-28T16:51:17.555Z,12.20
2019-03-28T16:53:45.678Z,12.30
2019-03-28T16:56:14.141Z,12.30
2019-03-28T16:58:42.597Z,12.30
2019-03-28T17:01:11.080Z,12.30
2019-03-28T17:03:39.594Z,12.40
2019-03-28T17:06:08.256Z,12.50
2019-03-28T17:08:36.829Z,12.20
2019-03-28T17:11:05.859Z,12.00
2019-03-28T17:13:34.485Z,12.00
2019-03-28T17:16:02.986Z,12.00
2019-03-28T17:18:31.666Z,12.00
2019-03-28T17:21:00.292Z,12.10
2019-03-28T17:23:29.015Z,12.00
2019-03-28T17:25:57.497Z,11.90
2019-03-28T17:28:26.061Z,12.00
2019-03-28T17:30:54.590Z,11.80
2019-03-28T17:33:23.129Z,11.70
2019-03-28T17:35:51.763Z,11.60
2019-03-28T17:38:20.422Z,11.60
2019-03-28T17:40:49.166Z,11.60
2019-03-28T17:43:17.711Z,11.50
2019-03-28T17:45:46.291Z,11.50
2019-03-28T17:48:14.809Z,11.60
2019-03-28T17:50:43.779Z,11.60
2019-03-28T17:53:13.113Z,11.60
2019-03-28T17:55:41.960Z,11.60
2019-03-28T17:58:10.574Z,11.60
2019-03-28T18:00:39.679Z,11.60
2019-03-28T18:03:09.703Z,11.50
2019-03-28T18:05:40.653Z,11.60
2019-03-28T18:08:08.629Z,11.50
2019-03-28T18:10:37.102Z,11.60
2019-03-28T18:13:05.648Z,11.50
2019-03-28T18:15:34.743Z,11.40
2019-03-28T18:18:03.333Z,11.30
2019-03-28T18:20:31.884Z,11.40
2019-03-28T18:23:00.361Z,11.40
2019-03-28T18:25:30.476Z,11.50
2019-03-28T18:27:59.161Z,11.40
2019-03-28T18:30:27.888Z,11.40
2019-03-28T18:32:56.405Z,11.30
2019-03-28T18:35:24.997Z,11.30
2019-03-28T18:37:53.490Z,11.40
2019-03-28T18:40:22.374Z,11.50
2019-03-28T18:42:51.156Z,11.40
2019-03-28T18:45:19.656Z,11.30
2019-03-28T18:47:48.369Z,11.30
2019-03-28T18:50:17.179Z,11.30
2019-03-28T18:52:45.818Z,11.10
2019-03-28T18:55:14.844Z,11.20
2019-03-28T18:57:43.345Z,11.30
2019-03-28T19:00:12.681Z,11.30
2019-03-28T19:02:41.309Z,11.20
2019-03-28T19:05:19.613Z,11.20
2019-03-28T19:07:40.338Z,11.10
2019-03-28T19:10:09.772Z,11.20
2019-03-28T19:12:38.240Z,11.10
2019-03-28T19:15:08.225Z,11.10
2019-03-28T19:17:37.386Z,11.20
2019-03-28T19:20:09.817Z,11.10
2019-03-28T19:22:38.513Z,11.20
2019-03-28T19:25:08.750Z,11.10
2019-03-28T19:27:38.052Z,11.00
2019-03-28T19:30:07.659Z,11.00
2019-03-28T19:32:36.110Z,11.10
2019-03-28T19:35:07.285Z,10.90
2019-03-28T19:37:36.999Z,10.80
2019-03-28T19:40:08.365Z,10.80
2019-03-28T19:42:36.978Z,10.70
2019-03-28T19:45:06.994Z,10.60
2019-03-28T19:47:35.579Z,10.60
2019-03-28T19:50:06.863Z,10.50
2019-03-28T19:52:35.642Z,10.50
2019-03-28T19:55:05.697Z,10.60
2019-03-28T19:57:34.226Z,10.50
2019-03-28T20:00:03.379Z,10.60
2019-03-28T20:02:31.885Z,10.70
2019-03-28T20:05:00.737Z,10.70
2019-03-28T20:07:30.884Z,10.80
2019-03-28T20:09:59.416Z,10.70
2019-03-28T20:12:27.945Z,10.60
2019-03-28T20:15:00.149Z,10.50
2019-03-28T20:17:28.071Z,10.50
2019-03-28T20:19:56.593Z,10.50
2019-03-28T20:22:25.091Z,10.40
2019-03-28T20:24:53.640Z,10.40
2019-03-28T20:27:22.987Z,10.50
2019-03-28T20:29:51.614Z,10.50
2019-03-28T20:32:20.727Z,10.60
2019-03-28T20:34:49.361Z,10.60
2019-03-28T20:37:17.997Z,10.60
2019-03-28T20:39:46.525Z,10.60
2019-03-28T20:42:15.041Z,10.60
2019-03-28T20:44:44.700Z,10.60
2019-03-28T20:47:13.384Z,10.50
2019-03-28T20:49:41.968Z,10.50
2019-03-28T20:52:10.450Z,10.40
2019-03-28T20:54:38.981Z,10.40
2019-03-28T20:57:07.493Z,10.30
2019-03-28T20:59:35.944Z,10.20
2019-03-28T21:02:04.754Z,10.20
2019-03-28T21:04:34.376Z,10.10
2019-03-28T21:07:03.560Z,10.00
2019-03-28T21:09:32.080Z,10.00
2019-03-28T21:12:01.152Z,10.00
2019-03-28T21:14:29.652Z,9.90
2019-03-28T21:16:58.447Z,9.80
2019-03-28T21:19:27.144Z,9.90
2019-03-28T21:21:55.624Z,10.00
2019-03-28T21:24:24.022Z,9.90
2019-03-28T21:27:11.804Z,10.00
2019-03-28T21:29:48.931Z,10.00
2019-03-28T21:32:10.453Z,10.00
2019-03-28T21:34:38.860Z,10.00
2019-03-28T21:37:07.354Z,9.90
2019-03-28T21:39:35.824Z,9.90
2019-03-28T21:42:07.094Z,9.90
2019-03-28T21:44:34.673Z,10.00
2019-03-28T21:47:03.097Z,10.00
2019-03-28T21:49:31.507Z,10.00
2019-03-28T21:51:59.917Z,9.80
2019-03-28T21:54:28.474Z,9.80
2019-03-28T21:56:57.274Z,9.80
2019-03-28T21:59:25.690Z,9.90
2019-03-28T22:01:54.111Z,9.70
2019-03-28T22:04:22.538Z,9.70
2019-03-28T22:06:50.972Z,9.70
2019-03-28T22:09:19.395Z,9.60
2019-03-28T22:11:47.815Z,9.60
2019-03-28T22:14:16.662Z,9.60
2019-03-28T22:16:45.078Z,9.70
2019-03-28T22:19:13.509Z,9.70
2019-03-28T22:21:41.941Z,9.60
2019-03-28T22:24:10.393Z,9.60
2019-03-28T22:26:38.939Z,9.50
2019-03-28T22:29:07.366Z,9.60
2019-03-28T22:31:35.793Z,9.60
2019-03-28T22:34:04.219Z,9.60
2019-03-28T22:36:32.629Z,9.50
2019-03-28T22:39:01.373Z,9.50
2019-03-28T22:41:31.318Z,9.50
2019-03-28T22:43:59.770Z,9.50
2019-03-28T22:46:28.187Z,9.40
2019-03-28T22:48:56.623Z,9.40
2019-03-28T22:51:25.047Z,9.30
2019-03-28T22:53:53.518Z,9.30
2019-03-28T22:56:21.944Z,9.30
2019-03-28T22:58:50.343Z,9.30
2019-03-28T23:01:18.837Z,9.30
2019-03-28T23:03:47.321Z,9.30
2019-03-28T23:06:15.740Z,9.30
2019-03-28T23:08:44.173Z,9.30
2019-03-28T23:11:13.854Z,9.30
2019-03-28T23:13:42.429Z,9.20
2019-03-28T23:16:10.854Z,9.30
2019-03-28T23:18:39.979Z,9.30
2019-03-28T23:21:08.636Z,9.20
2019-03-28T23:23:37.045Z,9.10
2019-03-28T23:26:05.513Z,9.10
2019-03-28T23:28:33.928Z,9.10
2019-03-28T23:31:02.687Z,9.00
2019-03-28T23:33:31.124Z,8.90
2019-03-28T23:35:59.517Z,8.80
2019-03-28T23:38:28.068Z,8.70
2019-03-28T23:40:56.501Z,8.70
2019-03-28T23:43:25.020Z,8.60
2019-03-28T23:45:53.433Z,8.60
2019-03-28T23:48:22.316Z,8.50
2019-03-28T23:50:50.735Z,8.40
2019-03-28T23:53:19.426Z,8.40
2019-03-28T23:55:47.841Z,8.40
2019-03-28T23:58:16.259Z,8.40
